Decoded Metar for KVNW ( in ) (IATA:) | Meteo·Mobile Aviation Weather
aviador You're here:

KVNW Decoded Metar

in
Report Time2019-02-16 08:15:00
UTC Time2019-02-16 07:56:39
Flight Rules vfr VFR
Wind360° at 03 kt
W.Decomp.*RWY 36: 3.0 kt HW 0 kt LCW
RWY 27: 3.0 kt RCW
Visibility9999 m
Phenomena:N/A
Clouds:N/A
Expected CloudBase > 800 ft AGL from Temp-Dew spread
CeilingNone
Temp-6°C
Dew Point-8°C (86% RH)
AAT-10.0°C
QNH1017 hPa
Raw Report
KVNW 160815Z AUTO 36003KT 10SM CLR M06/M08 A3003 RMK AO2=

Extra information for KVNW:More info

Social comments